sensor_id;sensor_type;location;lat;lon;timestamp;P1;durP1;ratioP1;P2;durP2;ratioP2
15595;SDS011;7898;48.658;9.068;2023-08-21T00:00:48;10.73;;;9.73;;
15595;SDS011;7898;48.658;9.068;2023-08-21T00:03:14;11.15;;;10.07;;
15595;SDS011;7898;48.658;9.068;2023-08-21T00:05:41;12.18;;;9.23;;
15595;SDS011;7898;48.658;9.068;2023-08-21T00:08:08;11.00;;;9.85;;
15595;SDS011;7898;48.658;9.068;2023-08-21T00:10:36;12.40;;;9.55;;
15595;SDS011;7898;48.658;9.068;2023-08-21T00:13:07;14.75;;;10.15;;
15595;SDS011;7898;48.658;9.068;2023-08-21T00:15:34;12.07;;;10.38;;
15595;SDS011;7898;48.658;9.068;2023-08-21T00:18:01;10.55;;;9.40;;
15595;SDS011;7898;48.658;9.068;2023-08-21T00:20:27;12.68;;;10.35;;
15595;SDS011;7898;48.658;9.068;2023-08-21T00:22:54;12.45;;;9.75;;
15595;SDS011;7898;48.658;9.068;2023-08-21T00:25:21;12.27;;;10.20;;
15595;SDS011;7898;48.658;9.068;2023-08-21T00:27:48;11.75;;;10.35;;
15595;SDS011;7898;48.658;9.068;2023-08-21T00:30:17;10.13;;;9.18;;
15595;SDS011;7898;48.658;9.068;2023-08-21T00:32:43;11.93;;;9.35;;
15595;SDS011;7898;48.658;9.068;2023-08-21T00:35:10;9.95;;;9.05;;
15595;SDS011;7898;48.658;9.068;2023-08-21T00:37:37;11.18;;;10.02;;
15595;SDS011;7898;48.658;9.068;2023-08-21T00:40:04;11.20;;;9.85;;
15595;SDS011;7898;48.658;9.068;2023-08-21T00:42:32;10.77;;;9.70;;
15595;SDS011;7898;48.658;9.068;2023-08-21T00:44:59;10.65;;;9.60;;
15595;SDS011;7898;48.658;9.068;2023-08-21T00:47:27;11.32;;;9.20;;
15595;SDS011;7898;48.658;9.068;2023-08-21T00:49:54;11.60;;;9.57;;
15595;SDS011;7898;48.658;9.068;2023-08-21T00:52:22;12.43;;;10.70;;
15595;SDS011;7898;48.658;9.068;2023-08-21T00:54:49;10.82;;;9.77;;
15595;SDS011;7898;48.658;9.068;2023-08-21T00:57:16;11.40;;;10.23;;
15595;SDS011;7898;48.658;9.068;2023-08-21T00:59:44;13.00;;;10.68;;
15595;SDS011;7898;48.658;9.068;2023-08-21T01:02:11;14.85;;;10.38;;
15595;SDS011;7898;48.658;9.068;2023-08-21T01:04:39;15.48;;;10.98;;
15595;SDS011;7898;48.658;9.068;2023-08-21T01:07:06;10.70;;;9.70;;
15595;SDS011;7898;48.658;9.068;2023-08-21T01:09:36;11.73;;;9.55;;
15595;SDS011;7898;48.658;9.068;2023-08-21T01:12:09;11.25;;;9.70;;
15595;SDS011;7898;48.658;9.068;2023-08-21T01:14:47;11.73;;;9.80;;
15595;SDS011;7898;48.658;9.068;2023-08-21T01:17:19;11.02;;;9.93;;
15595;SDS011;7898;48.658;9.068;2023-08-21T01:19:50;10.93;;;9.63;;
15595;SDS011;7898;48.658;9.068;2023-08-21T01:22:17;11.40;;;10.32;;
15595;SDS011;7898;48.658;9.068;2023-08-21T01:24:46;11.77;;;10.23;;
15595;SDS011;7898;48.658;9.068;2023-08-21T01:27:13;13.25;;;9.88;;
15595;SDS011;7898;48.658;9.068;2023-08-21T01:29:41;14.13;;;10.63;;
15595;SDS011;7898;48.658;9.068;2023-08-21T01:32:10;11.30;;;9.85;;
15595;SDS011;7898;48.658;9.068;2023-08-21T01:34:44;10.95;;;9.57;;
15595;SDS011;7898;48.658;9.068;2023-08-21T01:37:13;11.48;;;10.35;;
15595;SDS011;7898;48.658;9.068;2023-08-21T01:39:40;11.82;;;10.73;;
15595;SDS011;7898;48.658;9.068;2023-08-21T01:42:09;12.75;;;10.52;;
15595;SDS011;7898;48.658;9.068;2023-08-21T01:44:36;13.40;;;11.05;;
15595;SDS011;7898;48.658;9.068;2023-08-21T01:47:03;11.43;;;10.30;;
15595;SDS011;7898;48.658;9.068;2023-08-21T01:49:30;13.05;;;10.25;;
15595;SDS011;7898;48.658;9.068;2023-08-21T01:51:57;11.75;;;10.55;;
15595;SDS011;7898;48.658;9.068;2023-08-21T01:54:24;12.02;;;10.18;;
15595;SDS011;7898;48.658;9.068;2023-08-21T01:56:51;11.75;;;10.55;;
15595;SDS011;7898;48.658;9.068;2023-08-21T01:59:19;11.63;;;9.65;;
15595;SDS011;7898;48.658;9.068;2023-08-21T02:01:46;12.05;;;9.48;;
15595;SDS011;7898;48.658;9.068;2023-08-21T02:04:13;11.00;;;9.65;;
15595;SDS011;7898;48.658;9.068;2023-08-21T02:06:40;10.15;;;8.98;;
15595;SDS011;7898;48.658;9.068;2023-08-21T02:09:07;11.85;;;10.07;;
15595;SDS011;7898;48.658;9.068;2023-08-21T02:11:33;10.75;;;9.65;;
15595;SDS011;7898;48.658;9.068;2023-08-21T02:14:00;11.25;;;10.15;;
15595;SDS011;7898;48.658;9.068;2023-08-21T02:16:29;12.90;;;10.68;;
15595;SDS011;7898;48.658;9.068;2023-08-21T02:18:56;13.40;;;10.27;;
15595;SDS011;7898;48.658;9.068;2023-08-21T02:21:23;10.95;;;9.82;;
15595;SDS011;7898;48.658;9.068;2023-08-21T02:23:49;12.18;;;9.68;;
15595;SDS011;7898;48.658;9.068;2023-08-21T02:26:16;13.60;;;10.95;;
15595;SDS011;7898;48.658;9.068;2023-08-21T02:28:45;13.63;;;10.82;;
15595;SDS011;7898;48.658;9.068;2023-08-21T02:31:12;11.85;;;9.98;;
15595;SDS011;7898;48.658;9.068;2023-08-21T02:33:40;12.55;;;10.60;;
15595;SDS011;7898;48.658;9.068;2023-08-21T02:36:07;12.48;;;10.77;;
15595;SDS011;7898;48.658;9.068;2023-08-21T02:38:35;14.57;;;10.70;;
15595;SDS011;7898;48.658;9.068;2023-08-21T02:41:02;11.40;;;10.05;;
15595;SDS011;7898;48.658;9.068;2023-08-21T02:43:29;13.43;;;9.82;;
15595;SDS011;7898;48.658;9.068;2023-08-21T02:45:56;11.27;;;10.15;;
15595;SDS011;7898;48.658;9.068;2023-08-21T02:48:23;12.98;;;11.07;;
15595;SDS011;7898;48.658;9.068;2023-08-21T02:50:51;12.00;;;10.25;;
15595;SDS011;7898;48.658;9.068;2023-08-21T02:53:18;11.75;;;10.55;;
15595;SDS011;7898;48.658;9.068;2023-08-21T02:55:45;11.52;;;10.43;;
15595;SDS011;7898;48.658;9.068;2023-08-21T02:58:12;12.63;;;10.85;;
15595;SDS011;7898;48.658;9.068;2023-08-21T03:00:39;13.90;;;9.57;;
15595;SDS011;7898;48.658;9.068;2023-08-21T03:03:06;11.63;;;9.57;;
15595;SDS011;7898;48.658;9.068;2023-08-21T03:05:32;11.45;;;10.35;;
15595;SDS011;7898;48.658;9.068;2023-08-21T03:08:01;10.40;;;9.43;;
15595;SDS011;7898;48.658;9.068;2023-08-21T03:10:28;14.20;;;9.30;;
15595;SDS011;7898;48.658;9.068;2023-08-21T03:12:58;12.30;;;9.75;;
15595;SDS011;7898;48.658;9.068;2023-08-21T03:15:25;13.00;;;10.27;;
15595;SDS011;7898;48.658;9.068;2023-08-21T03:17:52;11.85;;;10.18;;
15595;SDS011;7898;48.658;9.068;2023-08-21T03:20:19;12.20;;;10.90;;
15595;SDS011;7898;48.658;9.068;2023-08-21T03:22:46;11.38;;;10.18;;
15595;SDS011;7898;48.658;9.068;2023-08-21T03:25:14;16.38;;;10.80;;
15595;SDS011;7898;48.658;9.068;2023-08-21T03:27:41;11.98;;;10.65;;
15595;SDS011;7898;48.658;9.068;2023-08-21T03:30:09;11.95;;;9.70;;
15595;SDS011;7898;48.658;9.068;2023-08-21T03:32:39;12.80;;;10.80;;
15595;SDS011;7898;48.658;9.068;2023-08-21T03:35:07;15.82;;;10.75;;
15595;SDS011;7898;48.658;9.068;2023-08-21T03:37:34;13.05;;;11.30;;
15595;SDS011;7898;48.658;9.068;2023-08-21T03:40:02;12.73;;;10.85;;
15595;SDS011;7898;48.658;9.068;2023-08-21T03:42:30;15.75;;;10.77;;
15595;SDS011;7898;48.658;9.068;2023-08-21T03:44:57;14.20;;;9.85;;
15595;SDS011;7898;48.658;9.068;2023-08-21T03:47:24;11.75;;;9.98;;
15595;SDS011;7898;48.658;9.068;2023-08-21T03:49:51;12.07;;;10.77;;
15595;SDS011;7898;48.658;9.068;2023-08-21T03:52:18;12.88;;;10.98;;
15595;SDS011;7898;48.658;9.068;2023-08-21T03:54:44;11.50;;;10.10;;
15595;SDS011;7898;48.658;9.068;2023-08-21T03:57:11;11.07;;;9.75;;
15595;SDS011;7898;48.658;9.068;2023-08-21T03:59:40;11.63;;;10.43;;
15595;SDS011;7898;48.658;9.068;2023-08-21T04:02:06;13.63;;;10.75;;
15595;SDS011;7898;48.658;9.068;2023-08-21T04:04:33;11.38;;;10.38;;
15595;SDS011;7898;48.658;9.068;2023-08-21T04:07:00;10.65;;;9.52;;
15595;SDS011;7898;48.658;9.068;2023-08-21T04:09:27;11.65;;;10.45;;
15595;SDS011;7898;48.658;9.068;2023-08-21T04:11:54;13.40;;;10.20;;
15595;SDS011;7898;48.658;9.068;2023-08-21T04:14:21;12.05;;;10.00;;
15595;SDS011;7898;48.658;9.068;2023-08-21T04:16:49;11.65;;;10.18;;
15595;SDS011;7898;48.658;9.068;2023-08-21T04:19:16;12.05;;;10.07;;
15595;SDS011;7898;48.658;9.068;2023-08-21T04:21:42;11.35;;;10.15;;
15595;SDS011;7898;48.658;9.068;2023-08-21T04:24:09;13.60;;;10.73;;
15595;SDS011;7898;48.658;9.068;2023-08-21T04:26:36;12.77;;;10.50;;
15595;SDS011;7898;48.658;9.068;2023-08-21T04:29:03;14.93;;;10.45;;
15595;SDS011;7898;48.658;9.068;2023-08-21T04:31:30;11.38;;;10.18;;
15595;SDS011;7898;48.658;9.068;2023-08-21T04:33:58;12.75;;;10.18;;
15595;SDS011;7898;48.658;9.068;2023-08-21T04:36:25;12.27;;;10.98;;
15595;SDS011;7898;48.658;9.068;2023-08-21T04:38:52;12.10;;;10.07;;
15595;SDS011;7898;48.658;9.068;2023-08-21T04:41:18;15.18;;;10.80;;
15595;SDS011;7898;48.658;9.068;2023-08-21T04:43:45;11.40;;;10.25;;
15595;SDS011;7898;48.658;9.068;2023-08-21T04:46:13;15.07;;;11.00;;
15595;SDS011;7898;48.658;9.068;2023-08-21T04:48:40;11.65;;;10.45;;
15595;SDS011;7898;48.658;9.068;2023-08-21T04:51:08;12.15;;;10.10;;
15595;SDS011;7898;48.658;9.068;2023-08-21T04:53:35;14.70;;;11.13;;
15595;SDS011;7898;48.658;9.068;2023-08-21T04:56:02;12.40;;;11.13;;
15595;SDS011;7898;48.658;9.068;2023-08-21T04:58:29;12.20;;;10.50;;
15595;SDS011;7898;48.658;9.068;2023-08-21T05:00:56;17.23;;;10.88;;
15595;SDS011;7898;48.658;9.068;2023-08-21T05:03:24;12.48;;;10.15;;
15595;SDS011;7898;48.658;9.068;2023-08-21T05:05:54;12.93;;;10.60;;
15595;SDS011;7898;48.658;9.068;2023-08-21T05:08:23;11.00;;;9.90;;
15595;SDS011;7898;48.658;9.068;2023-08-21T05:10:54;13.40;;;10.68;;
15595;SDS011;7898;48.658;9.068;2023-08-21T05:13:22;12.77;;;11.30;;
15595;SDS011;7898;48.658;9.068;2023-08-21T05:15:50;11.27;;;10.13;;
15595;SDS011;7898;48.658;9.068;2023-08-21T05:18:18;11.45;;;10.25;;
15595;SDS011;7898;48.658;9.068;2023-08-21T05:20:46;13.15;;;11.02;;
15595;SDS011;7898;48.658;9.068;2023-08-21T05:23:13;14.52;;;10.68;;
15595;SDS011;7898;48.658;9.068;2023-08-21T05:25:42;12.07;;;10.02;;
15595;SDS011;7898;48.658;9.068;2023-08-21T05:28:09;10.50;;;9.40;;
15595;SDS011;7898;48.658;9.068;2023-08-21T05:30:36;14.20;;;9.90;;
15595;SDS011;7898;48.658;9.068;2023-08-21T05:33:03;12.63;;;9.80;;
15595;SDS011;7898;48.658;9.068;2023-08-21T05:35:32;12.38;;;10.15;;
15595;SDS011;7898;48.658;9.068;2023-08-21T05:38:00;12.43;;;10.43;;
15595;SDS011;7898;48.658;9.068;2023-08-21T05:40:27;10.82;;;9.75;;
15595;SDS011;7898;48.658;9.068;2023-08-21T05:42:55;10.90;;;9.80;;
15595;SDS011;7898;48.658;9.068;2023-08-21T05:45:23;11.35;;;10.23;;
15595;SDS011;7898;48.658;9.068;2023-08-21T05:47:49;10.90;;;9.13;;
15595;SDS011;7898;48.658;9.068;2023-08-21T05:50:16;15.18;;;9.27;;
15595;SDS011;7898;48.658;9.068;2023-08-21T05:52:43;10.73;;;9.48;;
15595;SDS011;7898;48.658;9.068;2023-08-21T05:55:10;10.80;;;9.23;;
15595;SDS011;7898;48.658;9.068;2023-08-21T05:57:37;10.43;;;8.77;;
15595;SDS011;7898;48.658;9.068;2023-08-21T06:00:06;12.00;;;9.25;;
15595;SDS011;7898;48.658;9.068;2023-08-21T06:02:34;9.82;;;8.52;;
15595;SDS011;7898;48.658;9.068;2023-08-21T06:05:01;9.20;;;8.30;;
15595;SDS011;7898;48.658;9.068;2023-08-21T06:07:28;12.20;;;8.57;;
15595;SDS011;7898;48.658;9.068;2023-08-21T06:09:55;11.43;;;8.30;;
15595;SDS011;7898;48.658;9.068;2023-08-21T06:12:22;8.93;;;8.02;;
15595;SDS011;7898;48.658;9.068;2023-08-21T06:14:49;11.48;;;9.10;;
15595;SDS011;7898;48.658;9.068;2023-08-21T06:17:17;9.75;;;8.15;;
15595;SDS011;7898;48.658;9.068;2023-08-21T06:19:44;9.13;;;8.07;;
15595;SDS011;7898;48.658;9.068;2023-08-21T06:22:11;13.68;;;8.93;;
15595;SDS011;7898;48.658;9.068;2023-08-21T06:24:38;11.23;;;8.57;;
15595;SDS011;7898;48.658;9.068;2023-08-21T06:27:05;9.73;;;8.07;;
15595;SDS011;7898;48.658;9.068;2023-08-21T06:29:32;10.30;;;8.57;;
15595;SDS011;7898;48.658;9.068;2023-08-21T06:31:58;10.30;;;8.27;;
15595;SDS011;7898;48.658;9.068;2023-08-21T06:34:27;9.95;;;7.65;;
15595;SDS011;7898;48.658;9.068;2023-08-21T06:36:54;10.27;;;8.00;;
15595;SDS011;7898;48.658;9.068;2023-08-21T06:39:20;12.02;;;7.80;;
15595;SDS011;7898;48.658;9.068;2023-08-21T06:41:47;9.70;;;8.23;;
15595;SDS011;7898;48.658;9.068;2023-08-21T06:44:14;9.60;;;8.23;;
15595;SDS011;7898;48.658;9.068;2023-08-21T06:46:41;8.77;;;7.88;;
15595;SDS011;7898;48.658;9.068;2023-08-21T06:49:08;8.65;;;7.85;;
15595;SDS011;7898;48.658;9.068;2023-08-21T06:51:37;11.85;;;7.13;;
15595;SDS011;7898;48.658;9.068;2023-08-21T06:54:04;9.63;;;8.43;;
15595;SDS011;7898;48.658;9.068;2023-08-21T06:56:31;10.27;;;7.88;;
15595;SDS011;7898;48.658;9.068;2023-08-21T06:58:58;9.23;;;7.45;;
15595;SDS011;7898;48.658;9.068;2023-08-21T07:01:25;10.63;;;7.57;;
15595;SDS011;7898;48.658;9.068;2023-08-21T07:03:52;7.72;;;6.97;;
15595;SDS011;7898;48.658;9.068;2023-08-21T07:06:19;9.60;;;7.50;;
15595;SDS011;7898;48.658;9.068;2023-08-21T07:08:47;8.13;;;6.82;;
15595;SDS011;7898;48.658;9.068;2023-08-21T07:11:14;12.55;;;7.82;;
15595;SDS011;7898;48.658;9.068;2023-08-21T07:13:42;11.90;;;7.00;;
15595;SDS011;7898;48.658;9.068;2023-08-21T07:16:09;7.85;;;7.05;;
15595;SDS011;7898;48.658;9.068;2023-08-21T07:18:36;8.27;;;6.82;;
15595;SDS011;7898;48.658;9.068;2023-08-21T07:21:04;8.30;;;6.97;;
15595;SDS011;7898;48.658;9.068;2023-08-21T07:23:31;9.40;;;6.80;;
15595;SDS011;7898;48.658;9.068;2023-08-21T07:26:00;11.00;;;7.35;;
15595;SDS011;7898;48.658;9.068;2023-08-21T07:28:29;10.30;;;6.75;;
15595;SDS011;7898;48.658;9.068;2023-08-21T07:30:56;8.20;;;6.65;;
15595;SDS011;7898;48.658;9.068;2023-08-21T07:33:23;9.93;;;7.18;;
15595;SDS011;7898;48.658;9.068;2023-08-21T07:36:00;9.13;;;7.03;;
15595;SDS011;7898;48.658;9.068;2023-08-21T07:38:29;7.40;;;6.70;;
15595;SDS011;7898;48.658;9.068;2023-08-21T07:41:03;8.57;;;7.68;;
15595;SDS011;7898;48.658;9.068;2023-08-21T07:43:32;7.88;;;6.85;;
15595;SDS011;7898;48.658;9.068;2023-08-21T07:46:01;9.27;;;6.95;;
15595;SDS011;7898;48.658;9.068;2023-08-21T07:48:29;9.52;;;6.93;;
15595;SDS011;7898;48.658;9.068;2023-08-21T07:50:56;8.32;;;6.50;;
15595;SDS011;7898;48.658;9.068;2023-08-21T07:53:23;9.30;;;7.78;;
15595;SDS011;7898;48.658;9.068;2023-08-21T07:55:50;8.40;;;7.35;;
15595;SDS011;7898;48.658;9.068;2023-08-21T07:58:19;7.75;;;6.95;;
15595;SDS011;7898;48.658;9.068;2023-08-21T08:00:46;7.25;;;6.60;;
15595;SDS011;7898;48.658;9.068;2023-08-21T08:03:13;9.65;;;6.95;;
15595;SDS011;7898;48.658;9.068;2023-08-21T08:05:40;7.72;;;7.03;;
15595;SDS011;7898;48.658;9.068;2023-08-21T08:08:07;7.07;;;6.25;;
15595;SDS011;7898;48.658;9.068;2023-08-21T08:10:36;10.10;;;7.10;;
15595;SDS011;7898;48.658;9.068;2023-08-21T08:13:04;8.20;;;7.03;;
15595;SDS011;7898;48.658;9.068;2023-08-21T08:15:33;8.65;;;7.63;;
15595;SDS011;7898;48.658;9.068;2023-08-21T08:18:00;8.70;;;7.80;;
15595;SDS011;7898;48.658;9.068;2023-08-21T08:20:28;8.75;;;7.95;;
15595;SDS011;7898;48.658;9.068;2023-08-21T08:22:55;9.38;;;7.47;;
15595;SDS011;7898;48.658;9.068;2023-08-21T08:25:24;8.13;;;7.32;;
15595;SDS011;7898;48.658;9.068;2023-08-21T08:27:51;8.32;;;7.43;;
15595;SDS011;7898;48.658;9.068;2023-08-21T08:30:18;8.13;;;7.32;;
15595;SDS011;7898;48.658;9.068;2023-08-21T08:32:46;9.68;;;7.82;;
15595;SDS011;7898;48.658;9.068;2023-08-21T08:35:13;8.98;;;7.38;;
15595;SDS011;7898;48.658;9.068;2023-08-21T08:37:40;8.48;;;7.60;;
15595;SDS011;7898;48.658;9.068;2023-08-21T08:40:08;8.93;;;7.20;;
15595;SDS011;7898;48.658;9.068;2023-08-21T08:42:36;8.38;;;7.35;;
15595;SDS011;7898;48.658;9.068;2023-08-21T08:45:03;8.13;;;7.28;;
15595;SDS011;7898;48.658;9.068;2023-08-21T08:47:31;12.63;;;8.13;;
15595;SDS011;7898;48.658;9.068;2023-08-21T08:50:00;10.35;;;7.97;;
15595;SDS011;7898;48.658;9.068;2023-08-21T08:52:29;8.23;;;7.30;;
15595;SDS011;7898;48.658;9.068;2023-08-21T08:55:00;8.75;;;7.05;;
15595;SDS011;7898;48.658;9.068;2023-08-21T08:57:29;9.57;;;7.90;;
15595;SDS011;7898;48.658;9.068;2023-08-21T08:59:56;9.70;;;7.57;;
15595;SDS011;7898;48.658;9.068;2023-08-21T09:02:24;13.63;;;7.72;;
15595;SDS011;7898;48.658;9.068;2023-08-21T09:04:52;8.85;;;7.38;;
15595;SDS011;7898;48.658;9.068;2023-08-21T09:07:20;8.68;;;7.68;;
15595;SDS011;7898;48.658;9.068;2023-08-21T09:09:48;8.30;;;7.38;;
15595;SDS011;7898;48.658;9.068;2023-08-21T09:12:17;8.25;;;7.35;;
15595;SDS011;7898;48.658;9.068;2023-08-21T09:14:45;9.20;;;6.57;;
15595;SDS011;7898;48.658;9.068;2023-08-21T09:17:12;10.15;;;7.38;;
15595;SDS011;7898;48.658;9.068;2023-08-21T09:19:40;7.63;;;6.32;;
15595;SDS011;7898;48.658;9.068;2023-08-21T09:22:10;6.90;;;6.22;;
15595;SDS011;7898;48.658;9.068;2023-08-21T09:24:40;8.32;;;6.32;;
15595;SDS011;7898;48.658;9.068;2023-08-21T09:27:26;7.28;;;6.68;;
15595;SDS011;7898;48.658;9.068;2023-08-21T09:29:52;11.05;;;6.95;;
15595;SDS011;7898;48.658;9.068;2023-08-21T09:32:19;13.20;;;7.97;;
15595;SDS011;7898;48.658;9.068;2023-08-21T09:34:46;10.07;;;6.93;;
15595;SDS011;7898;48.658;9.068;2023-08-21T09:37:16;11.02;;;7.30;;
15595;SDS011;7898;48.658;9.068;2023-08-21T09:39:44;7.68;;;6.97;;
15595;SDS011;7898;48.658;9.068;2023-08-21T09:42:11;11.15;;;7.50;;
15595;SDS011;7898;48.658;9.068;2023-08-21T09:44:40;9.38;;;6.68;;
15595;SDS011;7898;48.658;9.068;2023-08-21T09:47:08;8.13;;;6.65;;
15595;SDS011;7898;48.658;9.068;2023-08-21T09:49:36;9.55;;;7.35;;
15595;SDS011;7898;48.658;9.068;2023-08-21T09:52:04;7.97;;;7.18;;
15595;SDS011;7898;48.658;9.068;2023-08-21T09:54:33;9.57;;;7.70;;
15595;SDS011;7898;48.658;9.068;2023-08-21T09:57:02;9.73;;;7.45;;
15595;SDS011;7898;48.658;9.068;2023-08-21T09:59:30;19.30;;;8.68;;
15595;SDS011;7898;48.658;9.068;2023-08-21T10:01:58;19.65;;;8.52;;
15595;SDS011;7898;48.658;9.068;2023-08-21T10:04:27;9.10;;;6.60;;
15595;SDS011;7898;48.658;9.068;2023-08-21T10:06:55;13.60;;;7.97;;
15595;SDS011;7898;48.658;9.068;2023-08-21T10:09:24;16.25;;;8.02;;
15595;SDS011;7898;48.658;9.068;2023-08-21T10:11:52;9.05;;;8.25;;
15595;SDS011;7898;48.658;9.068;2023-08-21T10:14:22;19.50;;;8.07;;
15595;SDS011;7898;48.658;9.068;2023-08-21T10:16:51;10.95;;;7.78;;
15595;SDS011;7898;48.658;9.068;2023-08-21T10:19:19;9.50;;;8.57;;
15595;SDS011;7898;48.658;9.068;2023-08-21T10:21:46;13.32;;;9.05;;
15595;SDS011;7898;48.658;9.068;2023-08-21T10:24:25;13.35;;;7.72;;
15595;SDS011;7898;48.658;9.068;2023-08-21T10:26:53;8.57;;;7.60;;
15595;SDS011;7898;48.658;9.068;2023-08-21T10:29:25;8.98;;;8.05;;
15595;SDS011;7898;48.658;9.068;2023-08-21T10:31:58;9.13;;;8.18;;
15595;SDS011;7898;48.658;9.068;2023-08-21T10:34:30;9.18;;;8.32;;
15595;SDS011;7898;48.658;9.068;2023-08-21T10:37:08;10.43;;;8.07;;
15595;SDS011;7898;48.658;9.068;2023-08-21T10:39:54;8.85;;;7.95;;
15595;SDS011;7898;48.658;9.068;2023-08-21T10:42:36;9.38;;;8.45;;
15595;SDS011;7898;48.658;9.068;2023-08-21T10:45:11;7.90;;;7.18;;
15595;SDS011;7898;48.658;9.068;2023-08-21T10:47:38;9.77;;;8.32;;
15595;SDS011;7898;48.658;9.068;2023-08-21T10:50:05;9.15;;;7.60;;
15595;SDS011;7898;48.658;9.068;2023-08-21T10:52:35;8.70;;;7.80;;
15595;SDS011;7898;48.658;9.068;2023-08-21T10:55:05;10.18;;;7.43;;
15595;SDS011;7898;48.658;9.068;2023-08-21T10:57:33;8.40;;;7.60;;
15595;SDS011;7898;48.658;9.068;2023-08-21T11:00:00;9.77;;;8.82;;
15595;SDS011;7898;48.658;9.068;2023-08-21T11:02:31;10.45;;;8.45;;
15595;SDS011;7898;48.658;9.068;2023-08-21T11:04:59;11.43;;;8.32;;
15595;SDS011;7898;48.658;9.068;2023-08-21T11:07:27;9.95;;;8.35;;
15595;SDS011;7898;48.658;9.068;2023-08-21T11:09:55;9.25;;;8.30;;
15595;SDS011;7898;48.658;9.068;2023-08-21T11:12:23;10.23;;;8.30;;
15595;SDS011;7898;48.658;9.068;2023-08-21T11:14:50;8.73;;;7.88;;
15595;SDS011;7898;48.658;9.068;2023-08-21T11:17:17;10.00;;;8.15;;
15595;SDS011;7898;48.658;9.068;2023-08-21T11:19:46;9.38;;;8.02;;
15595;SDS011;7898;48.658;9.068;2023-08-21T11:22:13;8.98;;;8.07;;
15595;SDS011;7898;48.658;9.068;2023-08-21T11:24:40;10.68;;;8.93;;
15595;SDS011;7898;48.658;9.068;2023-08-21T11:27:10;8.35;;;7.65;;
15595;SDS011;7898;48.658;9.068;2023-08-21T11:29:39;9.35;;;7.50;;
15595;SDS011;7898;48.658;9.068;2023-08-21T11:32:08;9.23;;;8.13;;
15595;SDS011;7898;48.658;9.068;2023-08-21T11:34:36;8.98;;;8.07;;
15595;SDS011;7898;48.658;9.068;2023-08-21T11:37:05;9.60;;;8.20;;
15595;SDS011;7898;48.658;9.068;2023-08-21T11:39:42;20.65;;;9.20;;
15595;SDS011;7898;48.658;9.068;2023-08-21T11:42:10;11.20;;;8.13;;
15595;SDS011;7898;48.658;9.068;2023-08-21T11:44:45;11.98;;;8.05;;
15595;SDS011;7898;48.658;9.068;2023-08-21T11:47:13;10.00;;;8.02;;
15595;SDS011;7898;48.658;9.068;2023-08-21T11:49:40;10.85;;;8.38;;
15595;SDS011;7898;48.658;9.068;2023-08-21T11:52:10;8.82;;;7.43;;
15595;SDS011;7898;48.658;9.068;2023-08-21T11:54:38;11.10;;;8.05;;
15595;SDS011;7898;48.658;9.068;2023-08-21T11:57:06;10.52;;;7.75;;
15595;SDS011;7898;48.658;9.068;2023-08-21T11:59:34;9.00;;;8.10;;
15595;SDS011;7898;48.658;9.068;2023-08-21T12:02:07;10.07;;;7.70;;
15595;SDS011;7898;48.658;9.068;2023-08-21T12:04:36;8.82;;;7.82;;
15595;SDS011;7898;48.658;9.068;2023-08-21T12:07:03;8.40;;;7.53;;
15595;SDS011;7898;48.658;9.068;2023-08-21T12:09:31;9.68;;;7.32;;
15595;SDS011;7898;48.658;9.068;2023-08-21T12:11:58;9.55;;;7.72;;
15595;SDS011;7898;48.658;9.068;2023-08-21T12:14:28;9.68;;;7.53;;
15595;SDS011;7898;48.658;9.068;2023-08-21T12:16:55;10.00;;;7.75;;
15595;SDS011;7898;48.658;9.068;2023-08-21T12:19:22;11.52;;;8.35;;
15595;SDS011;7898;48.658;9.068;2023-08-21T12:21:49;8.70;;;7.55;;
15595;SDS011;7898;48.658;9.068;2023-08-21T12:24:17;10.07;;;7.78;;
15595;SDS011;7898;48.658;9.068;2023-08-21T12:26:45;13.70;;;8.48;;
15595;SDS011;7898;48.658;9.068;2023-08-21T12:29:12;9.27;;;8.38;;
15595;SDS011;7898;48.658;9.068;2023-08-21T12:31:38;9.40;;;7.88;;
15595;SDS011;7898;48.658;9.068;2023-08-21T12:34:05;13.68;;;8.75;;
15595;SDS011;7898;48.658;9.068;2023-08-21T12:36:33;11.85;;;7.80;;
15595;SDS011;7898;48.658;9.068;2023-08-21T12:39:02;9.43;;;7.93;;
15595;SDS011;7898;48.658;9.068;2023-08-21T12:41:30;9.95;;;7.60;;
15595;SDS011;7898;48.658;9.068;2023-08-21T12:43:59;9.50;;;7.70;;
15595;SDS011;7898;48.658;9.068;2023-08-21T12:46:28;10.25;;;7.55;;
15595;SDS011;7898;48.658;9.068;2023-08-21T12:48:55;11.10;;;8.60;;
15595;SDS011;7898;48.658;9.068;2023-08-21T12:51:22;9.82;;;7.85;;
15595;SDS011;7898;48.658;9.068;2023-08-21T12:53:49;10.18;;;8.15;;
15595;SDS011;7898;48.658;9.068;2023-08-21T12:56:16;8.45;;;7.63;;
15595;SDS011;7898;48.658;9.068;2023-08-21T12:58:43;9.90;;;8.02;;
15595;SDS011;7898;48.658;9.068;2023-08-21T13:01:11;9.07;;;7.75;;
15595;SDS011;7898;48.658;9.068;2023-08-21T13:03:38;8.75;;;7.85;;
15595;SDS011;7898;48.658;9.068;2023-08-21T13:06:05;10.32;;;7.78;;
15595;SDS011;7898;48.658;9.068;2023-08-21T13:08:32;9.48;;;8.57;;
15595;SDS011;7898;48.658;9.068;2023-08-21T13:10:59;9.50;;;7.65;;
15595;SDS011;7898;48.658;9.068;2023-08-21T13:13:25;8.32;;;7.53;;
15595;SDS011;7898;48.658;9.068;2023-08-21T13:15:52;8.73;;;7.80;;
15595;SDS011;7898;48.658;9.068;2023-08-21T13:18:21;9.23;;;8.27;;
15595;SDS011;7898;48.658;9.068;2023-08-21T13:20:48;12.32;;;7.75;;
15595;SDS011;7898;48.658;9.068;2023-08-21T13:23:15;10.57;;;8.18;;
15595;SDS011;7898;48.658;9.068;2023-08-21T13:25:42;9.95;;;8.15;;
15595;SDS011;7898;48.658;9.068;2023-08-21T13:28:08;8.52;;;7.57;;
15595;SDS011;7898;48.658;9.068;2023-08-21T13:30:35;8.50;;;7.70;;
15595;SDS011;7898;48.658;9.068;2023-08-21T13:33:03;8.90;;;8.05;;
15595;SDS011;7898;48.658;9.068;2023-08-21T13:35:32;9.02;;;8.13;;
15595;SDS011;7898;48.658;9.068;2023-08-21T13:37:58;9.07;;;7.63;;
15595;SDS011;7898;48.658;9.068;2023-08-21T13:40:25;8.82;;;7.93;;
15595;SDS011;7898;48.658;9.068;2023-08-21T13:42:52;8.52;;;7.63;;
15595;SDS011;7898;48.658;9.068;2023-08-21T13:45:19;9.57;;;8.43;;
15595;SDS011;7898;48.658;9.068;2023-08-21T13:47:46;8.73;;;7.80;;
15595;SDS011;7898;48.658;9.068;2023-08-21T13:50:14;11.68;;;8.05;;
15595;SDS011;7898;48.658;9.068;2023-08-21T13:52:43;10.88;;;7.53;;
15595;SDS011;7898;48.658;9.068;2023-08-21T13:55:12;8.75;;;7.90;;
15595;SDS011;7898;48.658;9.068;2023-08-21T13:57:40;8.95;;;7.13;;
15595;SDS011;7898;48.658;9.068;2023-08-21T14:00:07;10.38;;;7.40;;
15595;SDS011;7898;48.658;9.068;2023-08-21T14:02:37;8.70;;;7.88;;
15595;SDS011;7898;48.658;9.068;2023-08-21T14:05:05;11.38;;;7.95;;
15595;SDS011;7898;48.658;9.068;2023-08-21T14:07:32;8.48;;;7.43;;
15595;SDS011;7898;48.658;9.068;2023-08-21T14:10:01;9.00;;;7.35;;
15595;SDS011;7898;48.658;9.068;2023-08-21T14:12:30;7.55;;;6.82;;
15595;SDS011;7898;48.658;9.068;2023-08-21T14:14:57;8.23;;;7.18;;
15595;SDS011;7898;48.658;9.068;2023-08-21T14:17:25;7.95;;;7.15;;
15595;SDS011;7898;48.658;9.068;2023-08-21T14:19:52;10.18;;;8.05;;
15595;SDS011;7898;48.658;9.068;2023-08-21T14:22:19;9.57;;;7.88;;
15595;SDS011;7898;48.658;9.068;2023-08-21T14:24:46;11.43;;;7.50;;
15595;SDS011;7898;48.658;9.068;2023-08-21T14:27:14;8.50;;;7.65;;
15595;SDS011;7898;48.658;9.068;2023-08-21T14:29:41;9.85;;;6.78;;
15595;SDS011;7898;48.658;9.068;2023-08-21T14:32:09;10.10;;;6.82;;
15595;SDS011;7898;48.658;9.068;2023-08-21T14:34:36;9.13;;;6.53;;
15595;SDS011;7898;48.658;9.068;2023-08-21T14:37:03;9.27;;;7.00;;
15595;SDS011;7898;48.658;9.068;2023-08-21T14:39:30;8.68;;;6.72;;
15595;SDS011;7898;48.658;9.068;2023-08-21T14:41:57;9.00;;;7.13;;
15595;SDS011;7898;48.658;9.068;2023-08-21T14:44:26;9.70;;;6.88;;
15595;SDS011;7898;48.658;9.068;2023-08-21T14:46:53;9.05;;;7.30;;
15595;SDS011;7898;48.658;9.068;2023-08-21T14:49:20;8.48;;;7.55;;
15595;SDS011;7898;48.658;9.068;2023-08-21T14:51:47;10.43;;;6.97;;
15595;SDS011;7898;48.658;9.068;2023-08-21T14:54:14;8.70;;;7.00;;